sensor_id;sensor_type;location;lat;lon;timestamp;P1;durP1;ratioP1;P2;durP2;ratioP2
15474;SDS011;7839;50.462;9.678;2024-03-17T00:04:41;0.70;;;0.70;;
15474;SDS011;7839;50.462;9.678;2024-03-17T00:11:22;0.90;;;0.70;;
15474;SDS011;7839;50.462;9.678;2024-03-17T00:18:02;1.23;;;0.93;;
15474;SDS011;7839;50.462;9.678;2024-03-17T00:24:43;1.07;;;0.70;;
15474;SDS011;7839;50.462;9.678;2024-03-17T00:31:23;1.00;;;0.90;;
15474;SDS011;7839;50.462;9.678;2024-03-17T00:38:03;0.73;;;0.70;;
15474;SDS011;7839;50.462;9.678;2024-03-17T00:44:50;1.00;;;0.80;;
15474;SDS011;7839;50.462;9.678;2024-03-17T00:51:30;0.70;;;0.70;;
15474;SDS011;7839;50.462;9.678;2024-03-17T00:58:10;0.97;;;0.70;;
15474;SDS011;7839;50.462;9.678;2024-03-17T01:04:50;0.73;;;0.73;;
15474;SDS011;7839;50.462;9.678;2024-03-17T01:11:31;1.03;;;0.90;;
15474;SDS011;7839;50.462;9.678;2024-03-17T01:18:11;0.70;;;0.70;;
15474;SDS011;7839;50.462;9.678;2024-03-17T01:24:51;0.53;;;0.53;;
15474;SDS011;7839;50.462;9.678;2024-03-17T01:31:31;0.53;;;0.53;;
15474;SDS011;7839;50.462;9.678;2024-03-17T01:38:12;0.50;;;0.50;;
15474;SDS011;7839;50.462;9.678;2024-03-17T01:44:52;0.73;;;0.73;;
15474;SDS011;7839;50.462;9.678;2024-03-17T01:51:32;0.60;;;0.60;;
15474;SDS011;7839;50.462;9.678;2024-03-17T01:58:12;0.70;;;0.70;;
15474;SDS011;7839;50.462;9.678;2024-03-17T02:04:53;0.67;;;0.50;;
15474;SDS011;7839;50.462;9.678;2024-03-17T02:11:33;0.63;;;0.63;;
15474;SDS011;7839;50.462;9.678;2024-03-17T02:18:14;0.40;;;0.40;;
15474;SDS011;7839;50.462;9.678;2024-03-17T02:24:54;0.50;;;0.50;;
15474;SDS011;7839;50.462;9.678;2024-03-17T02:31:34;0.57;;;0.57;;
15474;SDS011;7839;50.462;9.678;2024-03-17T02:38:15;0.50;;;0.50;;
15474;SDS011;7839;50.462;9.678;2024-03-17T02:45:15;0.40;;;0.40;;
15474;SDS011;7839;50.462;9.678;2024-03-17T02:51:56;0.40;;;0.40;;
15474;SDS011;7839;50.462;9.678;2024-03-17T02:58:37;0.40;;;0.40;;
15474;SDS011;7839;50.462;9.678;2024-03-17T03:05:17;0.33;;;0.33;;
15474;SDS011;7839;50.462;9.678;2024-03-17T03:11:58;0.50;;;0.50;;
15474;SDS011;7839;50.462;9.678;2024-03-17T03:18:39;0.40;;;0.40;;
15474;SDS011;7839;50.462;9.678;2024-03-17T03:25:20;0.60;;;0.60;;
15474;SDS011;7839;50.462;9.678;2024-03-17T03:32:00;0.50;;;0.50;;
15474;SDS011;7839;50.462;9.678;2024-03-17T03:38:40;0.30;;;0.30;;
15474;SDS011;7839;50.462;9.678;2024-03-17T03:45:20;0.40;;;0.40;;
15474;SDS011;7839;50.462;9.678;2024-03-17T03:52:00;0.60;;;0.60;;
15474;SDS011;7839;50.462;9.678;2024-03-17T03:58:41;0.40;;;0.40;;
15474;SDS011;7839;50.462;9.678;2024-03-17T04:05:22;0.20;;;0.20;;
15474;SDS011;7839;50.462;9.678;2024-03-17T04:12:03;0.20;;;0.20;;
15474;SDS011;7839;50.462;9.678;2024-03-17T04:18:43;0.30;;;0.30;;
15474;SDS011;7839;50.462;9.678;2024-03-17T04:25:24;0.30;;;0.30;;
15474;SDS011;7839;50.462;9.678;2024-03-17T04:32:04;0.70;;;0.40;;
15474;SDS011;7839;50.462;9.678;2024-03-17T04:38:44;0.47;;;0.47;;
15474;SDS011;7839;50.462;9.678;2024-03-17T04:45:25;0.40;;;0.40;;
15474;SDS011;7839;50.462;9.678;2024-03-17T04:52:06;0.30;;;0.30;;
15474;SDS011;7839;50.462;9.678;2024-03-17T04:58:47;0.50;;;0.50;;
15474;SDS011;7839;50.462;9.678;2024-03-17T05:05:27;0.40;;;0.40;;
15474;SDS011;7839;50.462;9.678;2024-03-17T05:12:07;1.30;;;0.40;;
15474;SDS011;7839;50.462;9.678;2024-03-17T05:18:48;0.40;;;0.40;;
15474;SDS011;7839;50.462;9.678;2024-03-17T05:25:28;0.30;;;0.30;;
15474;SDS011;7839;50.462;9.678;2024-03-17T05:32:09;0.40;;;0.23;;
15474;SDS011;7839;50.462;9.678;2024-03-17T05:38:49;0.67;;;0.40;;
15474;SDS011;7839;50.462;9.678;2024-03-17T05:45:30;0.20;;;0.20;;
15474;SDS011;7839;50.462;9.678;2024-03-17T05:52:12;0.30;;;0.30;;
15474;SDS011;7839;50.462;9.678;2024-03-17T05:58:52;0.30;;;0.30;;
15474;SDS011;7839;50.462;9.678;2024-03-17T06:05:33;0.40;;;0.40;;
15474;SDS011;7839;50.462;9.678;2024-03-17T06:12:14;0.50;;;0.40;;
15474;SDS011;7839;50.462;9.678;2024-03-17T06:18:54;0.30;;;0.30;;
15474;SDS011;7839;50.462;9.678;2024-03-17T06:25:40;0.20;;;0.20;;
15474;SDS011;7839;50.462;9.678;2024-03-17T06:32:21;0.50;;;0.50;;
15474;SDS011;7839;50.462;9.678;2024-03-17T06:39:01;0.30;;;0.30;;
15474;SDS011;7839;50.462;9.678;2024-03-17T06:45:42;0.40;;;0.37;;
15474;SDS011;7839;50.462;9.678;2024-03-17T06:52:22;0.20;;;0.20;;
15474;SDS011;7839;50.462;9.678;2024-03-17T06:59:02;0.40;;;0.40;;
15474;SDS011;7839;50.462;9.678;2024-03-17T07:05:50;0.20;;;0.20;;
15474;SDS011;7839;50.462;9.678;2024-03-17T07:12:30;0.40;;;0.40;;
15474;SDS011;7839;50.462;9.678;2024-03-17T07:19:10;0.50;;;0.50;;
15474;SDS011;7839;50.462;9.678;2024-03-17T07:25:54;0.37;;;0.37;;
15474;SDS011;7839;50.462;9.678;2024-03-17T07:32:34;0.30;;;0.30;;
15474;SDS011;7839;50.462;9.678;2024-03-17T07:39:15;0.50;;;0.50;;
15474;SDS011;7839;50.462;9.678;2024-03-17T07:45:57;0.30;;;0.30;;
15474;SDS011;7839;50.462;9.678;2024-03-17T07:52:37;0.73;;;0.40;;
15474;SDS011;7839;50.462;9.678;2024-03-17T07:59:17;0.30;;;0.30;;
15474;SDS011;7839;50.462;9.678;2024-03-17T08:05:58;0.40;;;0.40;;
15474;SDS011;7839;50.462;9.678;2024-03-17T08:12:38;1.33;;;0.40;;
15474;SDS011;7839;50.462;9.678;2024-03-17T08:19:18;2.03;;;1.93;;
15474;SDS011;7839;50.462;9.678;2024-03-17T08:26:00;2.83;;;1.53;;
15474;SDS011;7839;50.462;9.678;2024-03-17T08:32:40;0.90;;;0.90;;
15474;SDS011;7839;50.462;9.678;2024-03-17T08:39:20;0.67;;;0.67;;
15474;SDS011;7839;50.462;9.678;2024-03-17T08:46:02;4.87;;;4.47;;
15474;SDS011;7839;50.462;9.678;2024-03-17T08:52:43;7.07;;;4.03;;
15474;SDS011;7839;50.462;9.678;2024-03-17T08:59:23;2.40;;;2.20;;
15474;SDS011;7839;50.462;9.678;2024-03-17T09:06:03;1.63;;;1.33;;
15474;SDS011;7839;50.462;9.678;2024-03-17T09:12:44;5.30;;;3.97;;
15474;SDS011;7839;50.462;9.678;2024-03-17T09:19:27;1.30;;;1.30;;
15474;SDS011;7839;50.462;9.678;2024-03-17T09:26:09;1.30;;;1.20;;
15474;SDS011;7839;50.462;9.678;2024-03-17T09:32:51;1.07;;;1.07;;
15474;SDS011;7839;50.462;9.678;2024-03-17T09:39:31;1.17;;;1.07;;
15474;SDS011;7839;50.462;9.678;2024-03-17T09:46:11;1.10;;;1.10;;
15474;SDS011;7839;50.462;9.678;2024-03-17T09:52:51;1.10;;;0.97;;
15474;SDS011;7839;50.462;9.678;2024-03-17T09:59:32;1.77;;;1.30;;
15474;SDS011;7839;50.462;9.678;2024-03-17T10:06:12;3.13;;;1.50;;
15474;SDS011;7839;50.462;9.678;2024-03-17T10:12:53;1.07;;;1.07;;
15474;SDS011;7839;50.462;9.678;2024-03-17T10:19:33;1.53;;;1.43;;
15474;SDS011;7839;50.462;9.678;2024-03-17T10:26:17;1.17;;;1.17;;
15474;SDS011;7839;50.462;9.678;2024-03-17T10:32:59;1.30;;;1.20;;
15474;SDS011;7839;50.462;9.678;2024-03-17T10:39:40;1.23;;;1.13;;
15474;SDS011;7839;50.462;9.678;2024-03-17T10:46:21;1.47;;;1.37;;
15474;SDS011;7839;50.462;9.678;2024-03-17T10:53:02;1.37;;;1.30;;
15474;SDS011;7839;50.462;9.678;2024-03-17T10:59:45;2.40;;;1.80;;
15474;SDS011;7839;50.462;9.678;2024-03-17T11:06:26;1.50;;;1.40;;
15474;SDS011;7839;50.462;9.678;2024-03-17T11:13:06;1.70;;;1.33;;
15474;SDS011;7839;50.462;9.678;2024-03-17T11:20:08;1.13;;;1.13;;
15474;SDS011;7839;50.462;9.678;2024-03-17T11:26:53;2.13;;;1.93;;
15474;SDS011;7839;50.462;9.678;2024-03-17T11:40:24;1.40;;;1.33;;
15474;SDS011;7839;50.462;9.678;2024-03-17T11:47:05;1.20;;;1.20;;
15474;SDS011;7839;50.462;9.678;2024-03-17T11:53:53;1.43;;;1.33;;
15474;SDS011;7839;50.462;9.678;2024-03-17T12:00:37;3.17;;;2.27;;
15474;SDS011;7839;50.462;9.678;2024-03-17T12:07:18;5.03;;;2.97;;
15474;SDS011;7839;50.462;9.678;2024-03-17T12:13:58;4.77;;;3.70;;
15474;SDS011;7839;50.462;9.678;2024-03-17T12:20:38;2.75;;;2.35;;
15474;SDS011;7839;50.462;9.678;2024-03-17T12:27:23;2.10;;;1.90;;
15474;SDS011;7839;50.462;9.678;2024-03-17T12:34:03;1.60;;;1.50;;
15474;SDS011;7839;50.462;9.678;2024-03-17T12:40:43;2.13;;;1.93;;
15474;SDS011;7839;50.462;9.678;2024-03-17T12:47:24;2.60;;;2.40;;
15474;SDS011;7839;50.462;9.678;2024-03-17T12:54:14;1.40;;;1.30;;
15474;SDS011;7839;50.462;9.678;2024-03-17T13:01:02;2.30;;;1.83;;
15474;SDS011;7839;50.462;9.678;2024-03-17T13:07:43;1.50;;;1.40;;
15474;SDS011;7839;50.462;9.678;2024-03-17T13:14:24;3.00;;;2.67;;
15474;SDS011;7839;50.462;9.678;2024-03-17T13:21:04;1.33;;;1.23;;
15474;SDS011;7839;50.462;9.678;2024-03-17T13:27:46;1.70;;;1.60;;
15474;SDS011;7839;50.462;9.678;2024-03-17T13:34:27;1.70;;;1.60;;
15474;SDS011;7839;50.462;9.678;2024-03-17T13:41:07;1.70;;;1.60;;
15474;SDS011;7839;50.462;9.678;2024-03-17T13:47:50;1.40;;;1.30;;
15474;SDS011;7839;50.462;9.678;2024-03-17T13:54:30;1.30;;;1.30;;
15474;SDS011;7839;50.462;9.678;2024-03-17T14:01:11;1.60;;;1.50;;
15474;SDS011;7839;50.462;9.678;2024-03-17T14:07:52;3.67;;;2.93;;
15474;SDS011;7839;50.462;9.678;2024-03-17T14:14:32;2.80;;;2.10;;
15474;SDS011;7839;50.462;9.678;2024-03-17T14:21:13;2.37;;;2.17;;
15474;SDS011;7839;50.462;9.678;2024-03-17T14:27:53;4.57;;;4.00;;
15474;SDS011;7839;50.462;9.678;2024-03-17T14:34:33;1.50;;;1.40;;
15474;SDS011;7839;50.462;9.678;2024-03-17T14:41:18;1.50;;;1.40;;
15474;SDS011;7839;50.462;9.678;2024-03-17T14:47:58;1.10;;;1.10;;
15474;SDS011;7839;50.462;9.678;2024-03-17T14:54:38;3.00;;;2.60;;
15474;SDS011;7839;50.462;9.678;2024-03-17T15:01:18;1.10;;;1.10;;
15474;SDS011;7839;50.462;9.678;2024-03-17T15:07:58;1.40;;;1.30;;
15474;SDS011;7839;50.462;9.678;2024-03-17T15:14:38;1.50;;;1.40;;
15474;SDS011;7839;50.462;9.678;2024-03-17T15:21:19;3.97;;;2.63;;
15474;SDS011;7839;50.462;9.678;2024-03-17T15:27:59;1.00;;;1.00;;
15474;SDS011;7839;50.462;9.678;2024-03-17T15:34:41;1.10;;;1.10;;
15474;SDS011;7839;50.462;9.678;2024-03-17T15:41:21;1.10;;;1.10;;
15474;SDS011;7839;50.462;9.678;2024-03-17T15:48:01;1.23;;;1.13;;
15474;SDS011;7839;50.462;9.678;2024-03-17T15:54:41;1.17;;;1.07;;
15474;SDS011;7839;50.462;9.678;2024-03-17T16:01:21;0.80;;;0.80;;
15474;SDS011;7839;50.462;9.678;2024-03-17T16:08:02;1.00;;;1.00;;
15474;SDS011;7839;50.462;9.678;2024-03-17T16:14:44;0.70;;;0.70;;
15474;SDS011;7839;50.462;9.678;2024-03-17T16:21:26;0.90;;;0.90;;
15474;SDS011;7839;50.462;9.678;2024-03-17T16:28:06;0.80;;;0.80;;
15474;SDS011;7839;50.462;9.678;2024-03-17T16:34:46;1.00;;;0.70;;
15474;SDS011;7839;50.462;9.678;2024-03-17T16:41:27;0.90;;;0.90;;
15474;SDS011;7839;50.462;9.678;2024-03-17T16:48:07;0.60;;;0.60;;
15474;SDS011;7839;50.462;9.678;2024-03-17T16:54:48;0.60;;;0.60;;
15474;SDS011;7839;50.462;9.678;2024-03-17T17:01:28;0.67;;;0.67;;
15474;SDS011;7839;50.462;9.678;2024-03-17T17:08:09;0.63;;;0.60;;
15474;SDS011;7839;50.462;9.678;2024-03-17T17:14:49;0.47;;;0.47;;
15474;SDS011;7839;50.462;9.678;2024-03-17T17:21:29;0.43;;;0.43;;
15474;SDS011;7839;50.462;9.678;2024-03-17T17:28:11;0.60;;;0.60;;
15474;SDS011;7839;50.462;9.678;2024-03-17T17:34:53;0.57;;;0.57;;
15474;SDS011;7839;50.462;9.678;2024-03-17T17:41:33;0.50;;;0.50;;
15474;SDS011;7839;50.462;9.678;2024-03-17T17:48:14;0.90;;;0.57;;
15474;SDS011;7839;50.462;9.678;2024-03-17T17:54:54;0.50;;;0.50;;
15474;SDS011;7839;50.462;9.678;2024-03-17T18:01:34;0.77;;;0.67;;
15474;SDS011;7839;50.462;9.678;2024-03-17T18:08:14;0.47;;;0.47;;
15474;SDS011;7839;50.462;9.678;2024-03-17T18:14:54;0.43;;;0.43;;
15474;SDS011;7839;50.462;9.678;2024-03-17T18:21:36;0.43;;;0.43;;
15474;SDS011;7839;50.462;9.678;2024-03-17T18:28:16;0.63;;;0.60;;
15474;SDS011;7839;50.462;9.678;2024-03-17T18:34:57;0.70;;;0.70;;
15474;SDS011;7839;50.462;9.678;2024-03-17T18:41:37;0.70;;;0.70;;
15474;SDS011;7839;50.462;9.678;2024-03-17T18:48:17;0.40;;;0.40;;
15474;SDS011;7839;50.462;9.678;2024-03-17T18:54:57;0.50;;;0.50;;
15474;SDS011;7839;50.462;9.678;2024-03-17T19:01:39;0.50;;;0.50;;
15474;SDS011;7839;50.462;9.678;2024-03-17T19:08:19;0.60;;;0.60;;
15474;SDS011;7839;50.462;9.678;2024-03-17T19:15:00;0.67;;;0.67;;
15474;SDS011;7839;50.462;9.678;2024-03-17T19:21:40;0.70;;;0.70;;
15474;SDS011;7839;50.462;9.678;2024-03-17T19:28:25;0.63;;;0.63;;
15474;SDS011;7839;50.462;9.678;2024-03-17T19:35:06;0.87;;;0.80;;
15474;SDS011;7839;50.462;9.678;2024-03-17T19:41:46;0.40;;;0.40;;
15474;SDS011;7839;50.462;9.678;2024-03-17T19:48:26;0.80;;;0.50;;
15474;SDS011;7839;50.462;9.678;2024-03-17T19:55:06;0.53;;;0.53;;
15474;SDS011;7839;50.462;9.678;2024-03-17T20:01:48;0.40;;;0.40;;
15474;SDS011;7839;50.462;9.678;2024-03-17T20:08:28;1.30;;;0.60;;
15474;SDS011;7839;50.462;9.678;2024-03-17T20:15:11;0.53;;;0.53;;
15474;SDS011;7839;50.462;9.678;2024-03-17T20:21:52;0.87;;;0.57;;
15474;SDS011;7839;50.462;9.678;2024-03-17T20:28:32;0.50;;;0.50;;
15474;SDS011;7839;50.462;9.678;2024-03-17T20:35:12;0.93;;;0.67;;
15474;SDS011;7839;50.462;9.678;2024-03-17T20:41:52;0.53;;;0.53;;
15474;SDS011;7839;50.462;9.678;2024-03-17T20:48:32;0.63;;;0.63;;
15474;SDS011;7839;50.462;9.678;2024-03-17T20:55:12;0.80;;;0.70;;
15474;SDS011;7839;50.462;9.678;2024-03-17T21:01:53;0.50;;;0.50;;
15474;SDS011;7839;50.462;9.678;2024-03-17T21:08:33;0.50;;;0.50;;
15474;SDS011;7839;50.462;9.678;2024-03-17T21:15:14;0.80;;;0.60;;
15474;SDS011;7839;50.462;9.678;2024-03-17T21:21:54;0.40;;;0.40;;
15474;SDS011;7839;50.462;9.678;2024-03-17T21:28:34;0.50;;;0.50;;
15474;SDS011;7839;50.462;9.678;2024-03-17T21:35:16;0.43;;;0.40;;
15474;SDS011;7839;50.462;9.678;2024-03-17T21:41:57;0.50;;;0.50;;
15474;SDS011;7839;50.462;9.678;2024-03-17T21:48:38;0.40;;;0.40;;
15474;SDS011;7839;50.462;9.678;2024-03-17T21:55:18;1.27;;;0.50;;
15474;SDS011;7839;50.462;9.678;2024-03-17T22:01:59;1.27;;;0.70;;
15474;SDS011;7839;50.462;9.678;2024-03-17T22:08:39;0.37;;;0.37;;
15474;SDS011;7839;50.462;9.678;2024-03-17T22:15:19;0.50;;;0.50;;
15474;SDS011;7839;50.462;9.678;2024-03-17T22:22:00;0.50;;;0.50;;
15474;SDS011;7839;50.462;9.678;2024-03-17T22:28:40;0.47;;;0.47;;
15474;SDS011;7839;50.462;9.678;2024-03-17T22:35:20;0.50;;;0.50;;
15474;SDS011;7839;50.462;9.678;2024-03-17T22:42:00;0.30;;;0.30;;
15474;SDS011;7839;50.462;9.678;2024-03-17T22:48:41;0.87;;;0.40;;
15474;SDS011;7839;50.462;9.678;2024-03-17T22:55:21;0.53;;;0.53;;
15474;SDS011;7839;50.462;9.678;2024-03-17T23:02:01;0.40;;;0.40;;
15474;SDS011;7839;50.462;9.678;2024-03-17T23:08:43;0.63;;;0.63;;
15474;SDS011;7839;50.462;9.678;2024-03-17T23:15:23;0.87;;;0.77;;
15474;SDS011;7839;50.462;9.678;2024-03-17T23:22:04;0.40;;;0.40;;
15474;SDS011;7839;50.462;9.678;2024-03-17T23:28:44;0.60;;;0.40;;
15474;SDS011;7839;50.462;9.678;2024-03-17T23:35:24;0.63;;;0.47;;
15474;SDS011;7839;50.462;9.678;2024-03-17T23:42:04;0.43;;;0.43;;
15474;SDS011;7839;50.462;9.678;2024-03-17T23:48:44;0.50;;;0.30;;
15474;SDS011;7839;50.462;9.678;2024-03-17T23:55:25;0.80;;;0.57;;
